createdAt,value
2023-03-12T00:11:09.538Z,100092.53
2023-03-12T00:26:01.752Z,100094.70
2023-03-12T00:40:50.613Z,100081.45
2023-03-12T00:55:40.381Z,100091.52
2023-03-12T01:10:30.145Z,100090.27
2023-03-12T01:25:20.238Z,100094.73
2023-03-12T01:40:12.934Z,100089.52
2023-03-12T01:55:08.502Z,100073.45
2023-03-12T02:09:59.232Z,100056.98
2023-03-12T02:24:48.991Z,100054.78
2023-03-12T02:39:39.030Z,100047.77
2023-03-12T02:54:29.451Z,100046.36
2023-03-12T03:24:09.549Z,100025.59
2023-03-12T03:38:59.515Z,100021.93
2023-03-12T03:53:49.357Z,100013.89
2023-03-12T04:08:39.221Z,100028.80
2023-03-12T04:23:29.788Z,100041.22
2023-03-12T04:38:20.243Z,100041.92
2023-03-12T04:53:10.139Z,100037.15
2023-03-12T05:08:01.000Z,100032.30
2023-03-12T05:22:51.179Z,100009.85
2023-03-12T05:37:40.586Z,100011.41
2023-03-12T05:52:30.797Z,99980.72
2023-03-12T06:07:21.312Z,99973.77
2023-03-12T06:22:12.039Z,99984.19
2023-03-12T06:37:02.116Z,99995.88
2023-03-12T06:51:53.125Z,99992.25
2023-03-12T07:06:44.042Z,100003.84
2023-03-12T07:21:34.817Z,100019.98
2023-03-12T07:36:24.829Z,100034.06
2023-03-12T07:51:14.224Z,100031.60
2023-03-12T08:06:04.105Z,100033.19
2023-03-12T08:20:54.222Z,100049.05
2023-03-12T08:35:44.982Z,100055.49
2023-03-12T08:50:35.566Z,100042.55
2023-03-12T09:05:27.421Z,100053.90
2023-03-12T09:20:20.424Z,100064.02
2023-03-12T09:35:11.553Z,100060.72
2023-03-12T09:50:03.627Z,100061.06
2023-03-12T10:04:59.843Z,100081.23
2023-03-12T10:19:55.979Z,100089.75
2023-03-12T10:34:57.430Z,100082.23
2023-03-12T10:49:52.607Z,100079.80
2023-03-12T11:04:44.669Z,100064.84
2023-03-12T11:19:36.804Z,100048.45
2023-03-12T11:34:29.410Z,100058.02
2023-03-12T11:49:30.517Z,100039.88
2023-03-12T12:04:48.675Z,100056.03
2023-03-12T12:19:50.516Z,100018.82
2023-03-12T12:34:46.053Z,100036.94
2023-03-12T12:49:52.433Z,100029.20
2023-03-12T13:04:47.574Z,100019.98
2023-03-12T13:19:38.715Z,100017.98
2023-03-12T13:34:29.437Z,99995.52
2023-03-12T13:49:21.294Z,99978.09
2023-03-12T14:04:13.777Z,99977.45
2023-03-12T14:19:05.347Z,99976.13
2023-03-12T14:34:02.200Z,99991.20
2023-03-12T14:48:56.366Z,99992.38
2023-03-12T15:03:47.296Z,99991.55
2023-03-12T15:18:38.921Z,99973.09
2023-03-12T16:03:20.161Z,99956.35
2023-03-12T16:18:16.883Z,99968.61
2023-03-12T16:33:14.446Z,99953.63
2023-03-12T16:48:08.015Z,99941.00
2023-03-12T17:02:59.238Z,99952.25
2023-03-12T17:17:50.056Z,99964.30
2023-03-12T17:32:40.654Z,99980.61
2023-03-12T17:47:31.558Z,99971.92
2023-03-12T18:02:21.274Z,99986.11
2023-03-12T18:17:12.133Z,100005.30
2023-03-12T18:32:03.207Z,100012.86
2023-03-12T18:46:53.677Z,100005.16
2023-03-12T19:01:43.945Z,100014.48
2023-03-12T19:16:35.322Z,100017.03
2023-03-12T19:31:26.661Z,100032.12
2023-03-12T19:46:16.780Z,100014.95
2023-03-12T20:01:08.062Z,100012.13
2023-03-12T20:15:59.043Z,100005.45
2023-03-12T20:30:48.818Z,100001.63
2023-03-12T20:45:40.140Z,99991.63
2023-03-12T21:00:33.591Z,99989.92
2023-03-12T21:15:25.154Z,99989.66
2023-03-12T21:30:16.056Z,99973.81
2023-03-12T21:45:09.773Z,99962.38
2023-03-12T22:00:01.298Z,99944.17
2023-03-12T22:14:52.564Z,99919.16
2023-03-12T22:32:19.472Z,99918.17
2023-03-12T22:34:45.982Z,99910.98
2023-03-12T23:03:54.837Z,99889.25
2023-03-12T23:18:45.743Z,99882.64
2023-03-12T23:33:36.835Z,99864.66
2023-03-12T23:48:28.239Z,99850.18
